Time;durP1;ratioP1;P1;durP2;ratioP2;P2;SDS_P1;SDS_P2;PMS_P1;PMS_P2;Temp;Humidity;BMP_temperature;BMP_pressure;BME280_temperature;BME280_humidity;BME280_pressure;Samples;Min_cycle;Max_cycle;Signal;HPM_P1;HPM_P2
2021/01/24 00:00:53;;;;;;;2.70;1.93;;;1.20;99.90;;;;;;5009983;28;20208;-62
2021/01/24 00:03:19;;;;;;;1.70;1.60;;;1.30;99.90;;;;;;5007776;28;20433;-60
2021/01/24 00:05:45;;;;;;;1.67;1.57;;;1.30;99.90;;;;;;5009436;28;20194;-63
2021/01/24 00:08:12;;;;;;;1.80;1.70;;;1.20;99.90;;;;;;5011610;28;20425;-61
2021/01/24 00:10:38;;;;;;;2.10;1.73;;;1.20;99.90;;;;;;5002955;28;21005;-60
2021/01/24 00:13:04;;;;;;;2.70;2.40;;;1.20;99.90;;;;;;5007947;28;20862;-61
2021/01/24 00:15:35;;;;;;;3.00;2.20;;;1.20;99.90;;;;;;5008712;28;20433;-60
2021/01/24 00:18:01;;;;;;;3.90;2.10;;;1.20;99.90;;;;;;5007764;28;20474;-61
2021/01/24 00:20:26;;;;;;;2.70;1.80;;;1.10;99.90;;;;;;5005998;28;20197;-59
2021/01/24 00:22:55;;;;;;;1.90;1.60;;;1.10;99.90;;;;;;5011057;28;20243;-60
2021/01/24 00:25:20;;;;;;;1.73;1.53;;;1.10;99.90;;;;;;5009211;28;20182;-60
2021/01/24 00:27:46;;;;;;;1.97;1.87;;;1.10;99.90;;;;;;5007663;28;20958;-60
2021/01/24 00:30:12;;;;;;;1.90;1.80;;;1.10;99.90;;;;;;5010169;28;20230;-61
2021/01/24 00:32:39;;;;;;;1.53;1.43;;;1.10;99.90;;;;;;5009438;28;20619;-61
2021/01/24 00:35:06;;;;;;;2.70;2.00;;;1.10;99.90;;;;;;5003209;28;20442;-61
2021/01/24 00:37:32;;;;;;;1.87;1.73;;;1.00;99.90;;;;;;5010004;28;20467;-62
2021/01/24 00:39:58;;;;;;;1.37;1.27;;;1.10;99.90;;;;;;4995843;28;20453;-61
2021/01/24 00:42:23;;;;;;;2.40;1.60;;;1.00;99.90;;;;;;5007348;28;20261;-60
2021/01/24 00:44:49;;;;;;;2.10;1.70;;;1.00;99.90;;;;;;5004166;28;20673;-61
2021/01/24 00:47:15;;;;;;;1.50;1.40;;;1.10;99.90;;;;;;5005190;28;20743;-60
2021/01/24 00:49:42;;;;;;;2.03;1.67;;;1.10;99.90;;;;;;5007282;28;20253;-61
2021/01/24 00:52:08;;;;;;;1.53;1.20;;;1.10;99.90;;;;;;5006666;28;20632;-62
2021/01/24 00:54:33;;;;;;;1.67;1.57;;;1.10;99.90;;;;;;4985274;28;20442;-61
2021/01/24 00:56:59;;;;;;;1.57;1.37;;;1.10;99.90;;;;;;5001651;28;20296;-61
2021/01/24 00:59:24;;;;;;;1.10;1.10;;;1.10;99.90;;;;;;5008248;28;20277;-61
2021/01/24 01:01:50;;;;;;;1.63;1.50;;;1.20;99.90;;;;;;4985103;28;20210;-63
2021/01/24 01:04:15;;;;;;;1.27;1.20;;;1.20;99.90;;;;;;4996744;28;20187;-61
2021/01/24 01:06:41;;;;;;;1.40;1.30;;;1.20;99.90;;;;;;4999220;28;20613;-61
2021/01/24 01:09:10;;;;;;;1.67;1.57;;;1.10;99.90;;;;;;4991821;28;20197;-61
2021/01/24 01:11:35;;;;;;;1.50;1.40;;;1.10;99.90;;;;;;5008149;28;20226;-58
2021/01/24 01:14:01;;;;;;;1.87;1.40;;;1.10;99.90;;;;;;5003714;28;20441;-61
2021/01/24 01:16:30;;;;;;;1.67;1.57;;;1.10;99.90;;;;;;4994310;28;20288;-61
2021/01/24 01:18:56;;;;;;;3.90;2.00;;;1.10;99.90;;;;;;5003641;28;20437;-62
2021/01/24 01:21:22;;;;;;;1.97;1.87;;;1.10;99.90;;;;;;5025701;28;21019;-60
2021/01/24 01:23:47;;;;;;;1.93;1.83;;;1.10;99.90;;;;;;5007756;28;20637;-60
2021/01/24 01:26:16;;;;;;;1.97;1.47;;;1.10;99.90;;;;;;5010548;28;20197;-59
2021/01/24 01:28:41;;;;;;;2.23;1.70;;;1.10;99.90;;;;;;5005656;28;20189;-61
2021/01/24 01:31:07;;;;;;;1.90;1.60;;;1.10;99.90;;;;;;5008627;28;20461;-61
2021/01/24 01:33:33;;;;;;;1.60;1.50;;;1.10;99.90;;;;;;5011825;28;20178;-63
2021/01/24 01:35:59;;;;;;;1.70;1.60;;;1.10;99.90;;;;;;5003721;28;20202;-62
2021/01/24 01:38:24;;;;;;;3.47;1.57;;;1.10;99.90;;;;;;5011048;28;20521;-61
2021/01/24 01:40:51;;;;;;;1.67;1.57;;;1.00;99.90;;;;;;5011204;28;20186;-60
2021/01/24 01:43:17;;;;;;;1.60;1.50;;;1.00;99.90;;;;;;5011633;28;20673;-63
2021/01/24 01:45:43;;;;;;;1.17;1.17;;;1.00;99.90;;;;;;5009923;28;20986;-62
2021/01/24 01:48:09;;;;;;;1.30;1.20;;;1.00;99.90;;;;;;5009578;28;20518;-63
2021/01/24 01:50:35;;;;;;;1.67;1.57;;;1.00;99.90;;;;;;4986906;28;20615;-61
2021/01/24 01:53:04;;;;;;;1.10;1.10;;;1.10;99.90;;;;;;5007528;28;21004;-60
2021/01/24 01:55:47;;;;;;;2.63;1.50;;;1.00;99.90;;;;;;4998945;28;20555;-60
2021/01/24 01:58:12;;;;;;;1.40;1.30;;;1.00;99.90;;;;;;5012287;28;20593;-60
2021/01/24 02:00:38;;;;;;;1.43;1.33;;;1.00;99.90;;;;;;5006975;28;20229;-60
2021/01/24 02:03:18;;;;;;;1.40;1.23;;;1.00;99.90;;;;;;5011945;28;20260;-61
2021/01/24 02:05:53;;;;;;;1.57;1.33;;;1.00;99.90;;;;;;5005203;28;20185;-63
2021/01/24 02:08:51;;;;;;;1.40;1.30;;;1.00;99.90;;;;;;5012270;28;20414;-59
2021/01/24 02:11:25;;;;;;;1.83;1.30;;;1.00;99.90;;;;;;5000581;28;20950;-61
2021/01/24 02:14:10;;;;;;;0.93;0.90;;;1.00;99.90;;;;;;5009246;28;20441;-61
2021/01/24 02:16:38;;;;;;;1.10;1.00;;;1.00;99.90;;;;;;5012436;28;20510;-61
2021/01/24 02:19:07;;;;;;;1.90;1.10;;;1.00;99.90;;;;;;5002990;28;20437;-62
2021/01/24 02:21:41;;;;;;;0.80;0.80;;;1.00;99.90;;;;;;5025429;28;20549;-61
2021/01/24 02:24:12;;;;;;;0.93;0.90;;;1.00;99.90;;;;;;5012399;28;20405;-61
2021/01/24 02:26:52;;;;;;;0.80;0.80;;;0.90;99.90;;;;;;5012272;28;20515;-60
2021/01/24 02:29:25;;;;;;;0.80;0.80;;;0.90;99.90;;;;;;5009445;28;20652;-60
2021/01/24 02:31:52;;;;;;;0.70;0.70;;;1.00;99.90;;;;;;4999221;28;20498;-62
2021/01/24 02:34:21;;;;;;;0.80;0.80;;;1.00;99.90;;;;;;4998648;28;20964;-61
2021/01/24 02:36:47;;;;;;;0.70;0.70;;;1.00;99.90;;;;;;5011460;28;20480;-61
2021/01/24 02:39:14;;;;;;;0.80;0.80;;;1.00;99.90;;;;;;5008595;28;20437;-60
2021/01/24 02:41:40;;;;;;;0.70;0.70;;;0.90;99.90;;;;;;5011058;28;20409;-62
2021/01/24 02:44:08;;;;;;;0.80;0.80;;;0.90;99.90;;;;;;5006709;28;20436;-61
2021/01/24 02:46:34;;;;;;;0.80;0.80;;;0.90;99.90;;;;;;5009322;28;20186;-60
2021/01/24 02:49:00;;;;;;;0.80;0.80;;;0.80;99.90;;;;;;5008395;28;20463;-60
2021/01/24 02:51:27;;;;;;;0.80;0.80;;;0.80;99.90;;;;;;5012542;28;20491;-59
2021/01/24 02:53:53;;;;;;;0.90;0.90;;;0.70;99.90;;;;;;5009844;28;20401;-62
2021/01/24 02:56:21;;;;;;;0.83;0.80;;;0.70;99.90;;;;;;5001156;28;21026;-61
2021/01/24 02:58:52;;;;;;;0.70;0.70;;;0.70;99.90;;;;;;5011185;28;20425;-61
2021/01/24 03:01:17;;;;;;;0.70;0.70;;;0.70;99.90;;;;;;5011949;28;20907;-62
2021/01/24 03:03:43;;;;;;;0.87;0.87;;;0.60;99.90;;;;;;5005641;28;20488;-60
2021/01/24 03:06:10;;;;;;;0.97;0.97;;;0.60;99.90;;;;;;5012675;28;20178;-59
2021/01/24 03:08:37;;;;;;;2.30;0.80;;;0.60;99.90;;;;;;5011426;28;20167;-60
2021/01/24 03:11:03;;;;;;;0.80;0.80;;;0.50;99.90;;;;;;5012169;28;20524;-61
2021/01/24 03:13:37;;;;;;;0.90;0.90;;;0.50;99.90;;;;;;5003397;28;20918;-61
2021/01/24 03:16:03;;;;;;;0.83;0.83;;;0.50;99.90;;;;;;5003297;28;20940;-62
2021/01/24 03:18:33;;;;;;;0.80;0.80;;;0.40;99.90;;;;;;5010107;28;20491;-61
2021/01/24 03:20:59;;;;;;;3.63;0.90;;;0.40;99.90;;;;;;5002495;28;20991;-59
2021/01/24 03:23:25;;;;;;;0.80;0.80;;;0.30;99.90;;;;;;5011786;28;20495;-60
2021/01/24 03:25:53;;;;;;;0.83;0.83;;;0.30;99.50;;;;;;5008727;28;20414;-61
2021/01/24 03:28:19;;;;;;;0.90;0.90;;;0.30;99.00;;;;;;5009736;28;20867;-61
2021/01/24 03:30:51;;;;;;;0.80;0.80;;;0.30;99.00;;;;;;4992359;28;20445;-63
2021/01/24 03:33:17;;;;;;;1.00;1.00;;;0.20;99.30;;;;;;4993140;28;20477;-60
2021/01/24 03:35:43;;;;;;;0.70;0.70;;;0.20;99.30;;;;;;5018977;28;20914;-61
2021/01/24 03:38:09;;;;;;;0.90;0.90;;;0.20;99.20;;;;;;5016299;28;20203;-59
2021/01/24 03:40:35;;;;;;;0.90;0.90;;;0.10;99.30;;;;;;4991929;28;20948;-62
2021/01/24 03:43:01;;;;;;;1.00;1.00;;;0.10;99.10;;;;;;5010676;28;20446;-60
2021/01/24 03:45:27;;;;;;;1.00;1.00;;;0.00;99.20;;;;;;5003267;28;20196;-61
2021/01/24 03:47:53;;;;;;;0.90;0.90;;;0.00;99.60;;;;;;5008781;28;20186;-60
2021/01/24 03:50:19;;;;;;;0.80;0.80;;;0.00;99.90;;;;;;5006210;28;20544;-59
2021/01/24 03:52:45;;;;;;;1.00;1.00;;;0.00;99.90;;;;;;4990020;28;21155;-62
2021/01/24 03:55:11;;;;;;;1.00;1.00;;;0.00;99.90;;;;;;5002324;28;20188;-60
2021/01/24 03:57:37;;;;;;;0.90;0.90;;;0.00;99.90;;;;;;5010926;28;20284;-60
2021/01/24 04:00:04;;;;;;;1.10;1.07;;;0.00;99.90;;;;;;5008984;28;20830;-61
2021/01/24 04:02:30;;;;;;;0.80;0.80;;;0.00;99.90;;;;;;5006281;28;20208;-60
2021/01/24 04:04:56;;;;;;;0.90;0.90;;;0.00;99.80;;;;;;4994205;28;21016;-62
2021/01/24 04:07:21;;;;;;;0.80;0.80;;;0.00;99.70;;;;;;5028128;28;20592;-61
2021/01/24 04:09:47;;;;;;;1.00;0.90;;;0.10;99.90;;;;;;5010411;28;20589;-61
2021/01/24 04:12:12;;;;;;;0.80;0.80;;;0.00;99.90;;;;;;5008044;28;20229;-61
2021/01/24 04:14:38;;;;;;;0.93;0.93;;;0.10;99.90;;;;;;5005449;28;20197;-62
2021/01/24 04:17:05;;;;;;;1.00;1.00;;;0.00;99.90;;;;;;5010433;28;20250;-62
2021/01/24 04:19:31;;;;;;;0.90;0.90;;;0.00;99.90;;;;;;4999714;28;20951;-61
2021/01/24 04:21:57;;;;;;;1.00;1.00;;;-0.10;99.90;;;;;;5011167;28;20500;-60
2021/01/24 04:24:23;;;;;;;1.00;1.00;;;-0.20;99.90;;;;;;5009027;28;20441;-61
2021/01/24 04:26:52;;;;;;;0.93;0.93;;;-0.20;99.90;;;;;;5011006;28;20837;-62
2021/01/24 04:29:18;;;;;;;1.30;1.20;;;-0.30;99.90;;;;;;5006313;28;20208;-60
2021/01/24 04:31:44;;;;;;;0.93;0.90;;;-0.30;99.60;;;;;;5009549;28;21021;-60
2021/01/24 04:34:10;;;;;;;1.10;1.00;;;-0.30;98.80;;;;;;5009545;28;20472;-59
2021/01/24 04:36:36;;;;;;;1.17;1.13;;;-0.30;98.50;;;;;;5006537;28;20692;-59
2021/01/24 04:39:04;;;;;;;1.20;1.10;;;-0.30;98.10;;;;;;5003782;28;20795;-62
2021/01/24 04:41:31;;;;;;;1.30;1.10;;;-0.40;97.80;;;;;;5010943;28;20954;-59
2021/01/24 04:43:57;;;;;;;1.23;1.13;;;-0.40;97.20;;;;;;5007973;28;20421;-61
2021/01/24 04:46:22;;;;;;;1.20;1.20;;;-0.40;97.20;;;;;;5016813;23;20492;-55
2021/01/24 04:48:48;;;;;;;1.30;1.20;;;-0.40;97.10;;;;;;4981380;28;20193;-53
2021/01/24 04:51:18;;;;;;;1.40;1.30;;;-0.40;97.00;;;;;;4988841;28;20199;-53
2021/01/24 04:53:45;;;;;;;1.53;1.43;;;-0.50;97.20;;;;;;4984036;28;20511;-54
2021/01/24 04:56:11;;;;;;;1.23;1.10;;;-0.50;97.20;;;;;;4980858;28;20439;-53
2021/01/24 04:58:37;;;;;;;1.20;1.20;;;-0.50;97.50;;;;;;4967108;28;20426;-54
2021/01/24 05:01:07;;;;;;;1.30;1.20;;;-0.50;97.30;;;;;;4978734;28;20179;-53
2021/01/24 05:03:34;;;;;;;1.50;1.40;;;-0.50;97.20;;;;;;4985663;28;20418;-53
2021/01/24 05:06:01;;;;;;;1.40;1.30;;;-0.50;97.90;;;;;;4984877;28;20428;-53
2021/01/24 05:08:30;;;;;;;1.27;1.20;;;-0.60;97.40;;;;;;4970778;28;20432;-53
2021/01/24 05:11:05;;;;;;;1.40;1.30;;;-0.50;97.90;;;;;;4991478;28;20417;-53
2021/01/24 05:13:31;;;;;;;1.30;1.20;;;-0.50;98.40;;;;;;4992267;28;20495;-53
2021/01/24 05:15:57;;;;;;;1.40;1.30;;;-0.50;98.70;;;;;;4991275;28;20429;-53
2021/01/24 05:18:23;;;;;;;1.47;1.37;;;-0.50;98.90;;;;;;4984099;28;20649;-53
2021/01/24 05:20:52;;;;;;;1.43;1.33;;;-0.50;99.30;;;;;;5003905;28;20529;-53
2021/01/24 05:23:23;;;;;;;1.30;1.20;;;-0.40;99.30;;;;;;5000052;28;20421;-54
2021/01/24 05:25:49;;;;;;;2.33;1.80;;;-0.40;99.40;;;;;;4989227;28;20508;-52
2021/01/24 05:28:20;;;;;;;1.90;1.80;;;-0.40;99.60;;;;;;4980932;28;20441;-52
2021/01/24 05:30:47;;;;;;;1.73;1.63;;;-0.40;99.70;;;;;;4991638;28;20433;-54
2021/01/24 05:33:18;;;;;;;1.60;1.30;;;-0.40;99.80;;;;;;4986362;28;20430;-54
2021/01/24 05:35:49;;;;;;;2.00;1.60;;;-0.40;99.90;;;;;;4989163;28;20944;-54
2021/01/24 05:38:30;;;;;;;1.60;1.50;;;-0.40;99.90;;;;;;4991780;28;20465;-53
2021/01/24 05:40:59;;;;;;;1.70;1.60;;;-0.40;99.90;;;;;;4991408;28;20487;-55
2021/01/24 05:43:26;;;;;;;1.53;1.43;;;-0.40;99.90;;;;;;4990114;28;20502;-54
2021/01/24 05:45:53;;;;;;;1.53;1.43;;;-0.50;99.90;;;;;;4975405;28;20462;-53
2021/01/24 05:48:19;;;;;;;1.57;1.47;;;-0.50;99.90;;;;;;4988638;28;20511;-54
2021/01/24 05:50:46;;;;;;;1.43;1.33;;;-0.60;99.60;;;;;;5002385;28;20509;-54
2021/01/24 05:53:15;;;;;;;1.50;1.40;;;-0.60;99.80;;;;;;5009926;28;20719;-54
2021/01/24 05:55:43;;;;;;;2.00;1.80;;;-0.60;99.20;;;;;;4977279;28;20517;-53
2021/01/24 05:58:20;;;;;;;2.13;1.93;;;-0.70;98.50;;;;;;4982529;28;20469;-54
2021/01/24 06:00:48;;;;;;;3.30;1.70;;;-0.70;95.70;;;;;;4982067;28;20970;-52
2021/01/24 06:03:15;;;;;;;2.13;1.90;;;-0.80;95.60;;;;;;4981805;28;20481;-53
2021/01/24 06:05:41;;;;;;;2.10;1.90;;;-0.90;95.10;;;;;;4993512;28;20496;-54
2021/01/24 06:08:08;;;;;;;1.73;1.63;;;-0.90;95.60;;;;;;5004789;28;21042;-53
2021/01/24 06:10:35;;;;;;;3.03;2.20;;;-0.90;95.90;;;;;;4987844;28;20435;-53
2021/01/24 06:13:01;;;;;;;1.53;1.43;;;-0.90;95.20;;;;;;4985750;28;20437;-54
2021/01/24 06:15:31;;;;;;;2.57;1.70;;;-0.90;95.80;;;;;;4976663;28;20474;-53
2021/01/24 06:17:59;;;;;;;3.97;1.97;;;-1.00;96.00;;;;;;4987471;28;20586;-54
2021/01/24 06:20:41;;;;;;;10.70;2.20;;;-1.00;96.30;;;;;;4990812;28;20928;-54
2021/01/24 06:23:16;;;;;;;2.33;2.13;;;-1.00;96.60;;;;;;4991819;28;20445;-54
2021/01/24 06:25:45;;;;;;;2.23;2.03;;;-1.00;96.60;;;;;;4991592;28;20470;-55
2021/01/24 06:28:20;;;;;;;3.47;1.87;;;-1.00;95.30;;;;;;4988593;28;20463;-55
2021/01/24 06:30:48;;;;;;;2.60;2.20;;;-1.00;95.70;;;;;;4986355;28;20445;-54
2021/01/24 06:33:16;;;;;;;2.07;1.87;;;-1.00;96.00;;;;;;4988197;28;20925;-54
2021/01/24 06:35:49;;;;;;;2.47;2.10;;;-1.00;96.40;;;;;;4973631;28;20493;-55
2021/01/24 06:38:36;;;;;;;1.77;1.67;;;-1.00;96.20;;;;;;4987500;28;20493;-55
2021/01/24 06:41:08;;;;;;;3.43;2.23;;;-1.00;95.90;;;;;;4990397;28;20453;-52
2021/01/24 06:43:48;;;;;;;2.67;2.37;;;-1.10;95.90;;;;;;4986634;28;20430;-53
2021/01/24 06:46:32;;;;;;;3.90;2.43;;;-1.10;96.00;;;;;;4986572;28;20875;-54
2021/01/24 06:48:58;;;;;;;2.50;2.00;;;-1.20;96.40;;;;;;4988264;28;20435;-53
2021/01/24 06:51:40;;;;;;;3.40;2.47;;;-1.20;96.70;;;;;;4986593;28;20403;-53
2021/01/24 06:54:15;;;;;;;2.47;2.20;;;-1.20;97.20;;;;;;4986977;28;20685;-52
2021/01/24 06:56:47;;;;;;;2.30;2.00;;;-1.10;97.60;;;;;;4977678;28;20472;-53
2021/01/24 06:59:14;;;;;;;4.33;2.40;;;-1.10;97.80;;;;;;4988191;28;20465;-55
2021/01/24 07:01:43;;;;;;;4.60;2.77;;;-1.10;97.40;;;;;;4987611;28;20438;-54
2021/01/24 07:04:18;;;;;;;2.53;2.33;;;-1.10;96.90;;;;;;4986860;28;20500;-53
2021/01/24 07:06:44;;;;;;;3.53;2.40;;;-1.10;97.30;;;;;;4990223;28;20507;-54
2021/01/24 07:09:25;;;;;;;2.33;2.10;;;-1.10;96.80;;;;;;4989893;28;20935;-52
2021/01/24 07:11:53;;;;;;;5.23;2.67;;;-1.10;97.10;;;;;;4986120;28;21108;-53
2021/01/24 07:14:36;;;;;;;3.63;2.50;;;-1.10;97.40;;;;;;4984831;28;20488;-54
2021/01/24 07:17:11;;;;;;;5.20;2.43;;;-1.10;97.40;;;;;;4989182;28;20541;-54
2021/01/24 07:19:52;;;;;;;3.07;2.63;;;-1.10;97.50;;;;;;4985729;28;20526;-54
2021/01/24 07:22:23;;;;;;;3.50;2.80;;;-1.10;97.20;;;;;;4979419;28;20423;-55
2021/01/24 07:24:51;;;;;;;2.57;2.37;;;-1.10;97.10;;;;;;4970888;28;20566;-53
2021/01/24 07:27:28;;;;;;;6.43;2.10;;;-1.00;97.20;;;;;;4983874;28;20894;-54
2021/01/24 07:29:54;;;;;;;3.53;2.63;;;-1.00;96.80;;;;;;4982511;28;20652;-55
2021/01/24 07:32:24;;;;;;;3.27;2.37;;;-1.00;96.70;;;;;;4989491;28;20460;-54
2021/01/24 07:34:51;;;;;;;2.83;2.10;;;-1.00;94.90;;;;;;4988993;28;20432;-54
2021/01/24 07:37:18;;;;;;;6.13;3.00;;;-1.00;95.30;;;;;;4975033;28;20497;-54
2021/01/24 07:39:45;;;;;;;8.03;3.23;;;-0.90;95.80;;;;;;4983765;28;20468;-53
2021/01/24 07:42:12;;;;;;;4.40;2.77;;;-0.90;95.60;;;;;;4979518;28;20465;-54
2021/01/24 07:44:39;;;;;;;3.87;2.30;;;-0.80;95.60;;;;;;4984785;28;20426;-53
2021/01/24 07:47:05;;;;;;;2.80;2.60;;;-0.80;95.50;;;;;;4982484;28;20544;-55
2021/01/24 07:49:33;;;;;;;3.93;2.63;;;-0.70;95.60;;;;;;4978934;28;20560;-54
2021/01/24 07:52:00;;;;;;;3.10;2.70;;;-0.70;95.00;;;;;;4976815;28;20451;-55
2021/01/24 07:54:26;;;;;;;4.80;3.27;;;-0.60;95.40;;;;;;4974514;28;20542;-53
2021/01/24 07:56:52;;;;;;;8.60;2.27;;;-0.50;95.50;;;;;;4980912;28;20852;-53
2021/01/24 07:59:18;;;;;;;3.43;2.53;;;-0.40;95.30;;;;;;4978924;28;20442;-54
2021/01/24 08:01:47;;;;;;;19.90;7.70;;;-0.40;94.40;;;;;;4976144;28;20653;-56
2021/01/24 08:04:13;;;;;;;5.20;2.60;;;-0.30;94.40;;;;;;4981168;28;20534;-55
2021/01/24 08:06:39;;;;;;;5.23;2.80;;;-0.30;94.40;;;;;;4972637;28;20859;-54
2021/01/24 08:09:07;;;;;;;3.93;2.63;;;-0.20;93.90;;;;;;4976296;28;20198;-55
2021/01/24 08:11:34;;;;;;;4.27;2.97;;;-0.20;93.70;;;;;;4977595;28;20438;-55
2021/01/24 08:14:00;;;;;;;3.10;2.43;;;-0.20;93.50;;;;;;4975013;28;20493;-53
2021/01/24 08:16:42;;;;;;;6.23;2.97;;;-0.20;93.50;;;;;;4974940;28;20467;-55
2021/01/24 08:19:11;;;;;;;2.73;2.43;;;-0.20;92.90;;;;;;4978646;28;20445;-54
2021/01/24 08:21:40;;;;;;;3.57;2.23;;;-0.10;93.40;;;;;;4975057;28;20552;-54
2021/01/24 08:24:07;;;;;;;5.87;2.40;;;-0.10;92.50;;;;;;4975980;28;20451;-55
2021/01/24 08:26:34;;;;;;;2.40;2.20;;;0.00;92.40;;;;;;4978942;28;21023;-56
2021/01/24 08:29:00;;;;;;;2.80;2.07;;;-0.10;92.40;;;;;;4980552;28;20446;-54
2021/01/24 08:31:28;;;;;;;2.80;2.30;;;-0.10;92.70;;;;;;4973121;28;20445;-53
2021/01/24 08:33:55;;;;;;;2.97;2.57;;;0.00;93.60;;;;;;4977997;28;20990;-53
2021/01/24 08:36:23;;;;;;;2.23;2.03;;;0.10;93.20;;;;;;4976040;28;20462;-56
2021/01/24 08:38:49;;;;;;;2.80;2.10;;;0.20;92.50;;;;;;4972306;28;20812;-55
2021/01/24 08:41:17;;;;;;;6.70;2.33;;;0.20;90.40;;;;;;4971583;28;20928;-53
2021/01/24 08:43:43;;;;;;;3.47;2.10;;;0.20;91.20;;;;;;4972582;28;20432;-55
2021/01/24 08:46:33;;;;;;;2.20;2.00;;;0.30;92.20;;;;;;4972945;28;20453;-56
2021/01/24 08:49:08;;;;;;;2.27;2.07;;;0.30;90.80;;;;;;4983248;28;20808;-53
2021/01/24 08:51:41;;;;;;;3.47;2.23;;;0.30;90.90;;;;;;4978362;28;20440;-54
2021/01/24 08:54:37;;;;;;;2.40;2.03;;;0.40;91.40;;;;;;4975511;28;20505;-55
2021/01/24 08:57:07;;;;;;;3.13;2.10;;;0.40;90.90;;;;;;4965898;28;20473;-55
2021/01/24 08:59:34;;;;;;;4.07;2.27;;;0.30;91.20;;;;;;4973863;28;20437;-55
2021/01/24 09:02:00;;;;;;;4.43;2.37;;;0.30;91.20;;;;;;4976720;28;20521;-54
2021/01/24 09:04:28;;;;;;;4.30;2.30;;;0.30;92.20;;;;;;4981589;28;20442;-55
2021/01/24 09:07:00;;;;;;;2.90;2.23;;;0.20;92.90;;;;;;4980540;28;20536;-54
2021/01/24 09:09:27;;;;;;;1.90;1.80;;;0.30;93.10;;;;;;4977297;28;20453;-55
2021/01/24 09:11:54;;;;;;;2.17;1.97;;;0.30;93.30;;;;;;4976349;28;20445;-55
2021/01/24 09:14:22;;;;;;;3.03;2.10;;;0.30;92.40;;;;;;4986119;28;20769;-55
2021/01/24 09:17:07;;;;;;;4.50;2.67;;;0.30;92.90;;;;;;4978026;28;20468;-54
2021/01/24 09:19:34;;;;;;;4.73;2.60;;;0.30;93.30;;;;;;4978350;28;20435;-54
2021/01/24 09:22:00;;;;;;;2.20;2.10;;;0.40;93.40;;;;;;4979707;28;20528;-55
2021/01/24 09:24:26;;;;;;;3.00;2.70;;;0.40;93.60;;;;;;4980638;28;20907;-57
2021/01/24 09:26:51;;;;;;;2.80;2.27;;;0.50;92.90;;;;;;4980617;28;20450;-54
2021/01/24 09:29:17;;;;;;;2.77;2.40;;;0.50;92.90;;;;;;4982070;28;20552;-55
2021/01/24 09:31:43;;;;;;;3.87;2.40;;;0.60;92.60;;;;;;4977987;28;20203;-55
2021/01/24 09:34:09;;;;;;;2.33;2.13;;;0.60;93.00;;;;;;4983019;28;20450;-56
2021/01/24 09:36:35;;;;;;;2.30;2.10;;;0.70;92.60;;;;;;4981326;28;20459;-53
2021/01/24 09:39:01;;;;;;;3.10;2.47;;;0.80;92.50;;;;;;4975074;28;20785;-57
2021/01/24 09:41:27;;;;;;;3.73;2.17;;;0.80;92.10;;;;;;4981194;28;20183;-52
2021/01/24 09:43:53;;;;;;;2.40;2.20;;;0.90;91.50;;;;;;4982781;28;20441;-54
2021/01/24 09:46:18;;;;;;;3.10;2.33;;;1.00;90.20;;;;;;4982814;28;20203;-52
2021/01/24 09:48:44;;;;;;;2.20;2.00;;;1.10;90.40;;;;;;4980977;28;20499;-55
2021/01/24 09:51:10;;;;;;;2.33;2.13;;;1.20;87.70;;;;;;4978717;28;20191;-58
2021/01/24 09:53:36;;;;;;;4.27;2.30;;;1.20;85.80;;;;;;4958365;28;20192;-59
2021/01/24 09:56:06;;;;;;;6.67;2.30;;;1.30;89.80;;;;;;4979505;28;20179;-57
2021/01/24 09:58:32;;;;;;;3.87;2.00;;;1.30;84.50;;;;;;4977061;28;20471;-58
2021/01/24 10:00:58;;;;;;;1.67;1.53;;;1.40;86.70;;;;;;4981995;28;20465;-55
2021/01/24 10:03:24;;;;;;;3.63;1.73;;;1.50;83.50;;;;;;4980436;28;20478;-56
2021/01/24 10:05:51;;;;;;;2.67;1.90;;;1.60;82.50;;;;;;4982146;28;20580;-54
2021/01/24 10:08:19;;;;;;;3.13;1.73;;;1.60;77.00;;;;;;4985376;28;20426;-54
2021/01/24 10:10:48;;;;;;;1.83;1.73;;;1.50;80.60;;;;;;4980972;28;20565;-55
2021/01/24 10:13:14;;;;;;;5.07;2.23;;;1.60;75.10;;;;;;4988230;28;20427;-58
2021/01/24 10:15:41;;;;;;;1.70;1.60;;;1.60;78.10;;;;;;4983887;28;20916;-57
2021/01/24 10:18:07;;;;;;;3.80;1.80;;;1.60;78.50;;;;;;4980364;28;20766;-58
2021/01/24 10:20:33;;;;;;;2.10;1.80;;;1.60;74.80;;;;;;4986543;28;20467;-56
2021/01/24 10:22:59;;;;;;;2.33;1.90;;;1.60;79.10;;;;;;4990451;28;20441;-57
2021/01/24 10:25:25;;;;;;;4.33;2.53;;;1.70;79.00;;;;;;4985921;28;20463;-59
2021/01/24 10:27:51;;;;;;;2.90;1.90;;;1.90;81.50;;;;;;4984114;28;20839;-57
2021/01/24 10:30:17;;;;;;;2.20;1.67;;;2.00;78.10;;;;;;4982416;28;20448;-57
2021/01/24 10:32:43;;;;;;;2.37;1.80;;;1.90;77.10;;;;;;4988554;28;20256;-57
2021/01/24 10:35:09;;;;;;;2.40;2.10;;;2.00;76.30;;;;;;4988754;28;20434;-57
2021/01/24 10:37:35;;;;;;;2.53;2.10;;;2.10;74.90;;;;;;4984451;28;20218;-57
2021/01/24 10:40:05;;;;;;;3.30;2.27;;;2.20;72.80;;;;;;4980987;28;20851;-57
2021/01/24 10:42:30;;;;;;;2.10;1.90;;;2.20;75.80;;;;;;4985576;28;20186;-58
2021/01/24 10:44:57;;;;;;;1.87;1.77;;;2.20;78.30;;;;;;4983646;28;20438;-57
2021/01/24 10:47:23;;;;;;;3.00;1.80;;;2.50;76.20;;;;;;5008555;23;20280;-60
2021/01/24 10:49:49;;;;;;;2.63;2.00;;;2.50;66.40;;;;;;5005217;28;20429;-61
2021/01/24 10:52:15;;;;;;;5.90;2.13;;;2.50;68.30;;;;;;5007744;28;21290;-62
2021/01/24 10:54:41;;;;;;;3.60;2.10;;;2.50;68.20;;;;;;5005551;28;20175;-61
2021/01/24 10:57:06;;;;;;;5.03;2.63;;;2.70;71.10;;;;;;5009087;28;20202;-58
2021/01/24 10:59:32;;;;;;;2.43;2.17;;;2.90;68.80;;;;;;5009359;28;20664;-59
2021/01/24 11:01:58;;;;;;;7.23;2.30;;;3.10;66.70;;;;;;5024318;28;20179;-59
2021/01/24 11:04:24;;;;;;;4.30;1.80;;;3.20;68.50;;;;;;5022153;28;20265;-58
2021/01/24 11:06:50;;;;;;;6.30;1.87;;;3.30;66.80;;;;;;5019324;28;20530;-60
2021/01/24 11:09:19;;;;;;;2.40;2.20;;;3.30;65.00;;;;;;5006873;28;20271;-59
2021/01/24 11:11:44;;;;;;;4.17;1.70;;;3.40;65.50;;;;;;5005615;28;20479;-61
2021/01/24 11:14:10;;;;;;;4.03;2.33;;;3.30;59.30;;;;;;5021343;28;20446;-60
2021/01/24 11:16:39;;;;;;;1.80;1.70;;;3.30;58.70;;;;;;5002206;28;20186;-64
2021/01/24 11:19:05;;;;;;;7.53;2.17;;;3.30;57.50;;;;;;5001582;28;20278;-61
2021/01/24 11:21:31;;;;;;;1.63;1.53;;;3.30;59.40;;;;;;5008297;28;20469;-63
2021/01/24 11:23:59;;;;;;;3.47;1.80;;;3.30;58.10;;;;;;5008330;28;20573;-62
2021/01/24 11:26:24;;;;;;;1.83;1.73;;;3.30;56.90;;;;;;5007414;28;20271;-61
2021/01/24 11:28:56;;;;;;;3.23;1.83;;;3.30;56.70;;;;;;5008027;28;20574;-62
2021/01/24 11:31:23;;;;;;;2.40;1.60;;;3.40;57.50;;;;;;5004004;28;20174;-62
2021/01/24 11:33:48;;;;;;;5.23;1.70;;;3.50;58.00;;;;;;5004149;28;20541;-63
2021/01/24 11:36:16;;;;;;;1.83;1.53;;;3.60;58.60;;;;;;5000340;28;20465;-62
2021/01/24 11:38:42;;;;;;;3.90;2.03;;;3.50;58.80;;;;;;5006419;28;20584;-64
2021/01/24 11:41:08;;;;;;;2.80;1.40;;;3.60;58.30;;;;;;5008642;28;20447;-65
2021/01/24 11:43:34;;;;;;;2.30;1.73;;;3.80;56.40;;;;;;5000328;28;20894;-66
2021/01/24 11:46:00;;;;;;;2.13;1.70;;;4.00;58.90;;;;;;5005541;28;20548;-64
2021/01/24 11:48:26;;;;;;;3.77;1.77;;;4.20;59.60;;;;;;5005894;28;20467;-65
2021/01/24 11:50:53;;;;;;;1.53;1.43;;;4.50;59.30;;;;;;5003608;28;20436;-62
2021/01/24 11:53:22;;;;;;;1.70;1.50;;;4.50;55.40;;;;;;5006022;28;20292;-62
2021/01/24 11:55:52;;;;;;;2.43;1.50;;;4.50;56.00;;;;;;5000886;28;20471;-61
2021/01/24 11:58:21;;;;;;;2.90;2.00;;;4.50;53.40;;;;;;5004950;28;20478;-62
2021/01/24 12:00:47;;;;;;;6.37;2.57;;;4.40;54.40;;;;;;4999882;28;20423;-61
2021/01/24 12:03:13;;;;;;;2.10;1.90;;;4.50;55.90;;;;;;5001701;28;20439;-62
2021/01/24 12:05:39;;;;;;;3.03;1.73;;;4.50;53.90;;;;;;5007006;28;20571;-62
2021/01/24 12:08:06;;;;;;;2.20;1.77;;;4.70;52.80;;;;;;4986165;28;20653;-62
2021/01/24 12:10:32;;;;;;;2.80;1.60;;;4.90;53.50;;;;;;5001870;28;20457;-61
2021/01/24 12:12:57;;;;;;;2.93;1.97;;;5.40;54.20;;;;;;5006415;28;20419;-62
2021/01/24 12:15:24;;;;;;;2.80;1.40;;;5.60;51.00;;;;;;5005002;28;20466;-61
2021/01/24 12:17:51;;;;;;;2.20;1.70;;;5.90;51.70;;;;;;4997476;28;20459;-59
2021/01/24 12:20:17;;;;;;;2.23;1.70;;;5.90;50.80;;;;;;5002936;28;20220;-60
2021/01/24 12:22:43;;;;;;;2.60;1.40;;;5.60;49.70;;;;;;4999673;28;20929;-59
2021/01/24 12:25:09;;;;;;;3.17;1.80;;;5.80;48.00;;;;;;4997412;28;20193;-60
2021/01/24 12:27:35;;;;;;;4.87;1.97;;;5.90;48.40;;;;;;5005307;28;20216;-60
2021/01/24 12:30:02;;;;;;;1.80;1.70;;;6.10;48.10;;;;;;4996838;28;20972;-61
2021/01/24 12:32:27;;;;;;;2.50;1.90;;;5.90;47.60;;;;;;4999530;28;20264;-60
2021/01/24 12:34:53;;;;;;;1.63;1.53;;;5.50;48.90;;;;;;4997869;28;20914;-63
2021/01/24 12:37:21;;;;;;;2.43;1.90;;;4.90;48.40;;;;;;4995480;28;20697;-62
2021/01/24 12:39:47;;;;;;;3.20;1.80;;;4.30;50.00;;;;;;4999820;28;20185;-63
2021/01/24 12:42:13;;;;;;;1.73;1.50;;;3.90;50.50;;;;;;4995658;28;20423;-60
2021/01/24 12:44:38;;;;;;;3.70;1.50;;;3.60;51.60;;;;;;4998538;28;20173;-61
2021/01/24 12:47:09;;;;;;;1.93;1.70;;;3.40;53.50;;;;;;4979520;28;20754;-63
2021/01/24 12:49:36;;;;;;;2.30;1.70;;;3.20;53.70;;;;;;4999219;28;20215;-61
2021/01/24 12:52:02;;;;;;;3.07;2.03;;;3.00;53.40;;;;;;4999638;28;20437;-61
2021/01/24 12:54:28;;;;;;;1.87;1.70;;;2.90;55.50;;;;;;4998883;28;20461;-61
2021/01/24 12:56:53;;;;;;;2.53;1.80;;;2.80;57.30;;;;;;5005420;28;20863;-61